Terminal Aerodrome Forecast
Issued by NWS

Home | Current Version | Previous Version | Graphics & Text | Print | Product List | Glossary On
Versions: 1 2 3 4 5 6 7 8 9 10 11 12 13 14 15
000
FTUS43 KUNR 261700
TAFGCC
TAF
KGCC 261725Z 2618/2718 33015KT P6SM BKN050
     FM270100 27008KT P6SM BKN040
     FM271000 30012G22KT P6SM OVC100=

USA.gov is the U.S. government's official web portal to all federal, state and local government web resources and services.